A- A+ FrançaisEnglishEspañol中国

Services sur Internet Soldes sur Internet Des idées de cadeaux Météo Météo aéro

La météo à : Autours de vous Tarbes-Lourdes-PyrénéesAvignon Pujaut Eu-Mers-Le-Treport Chambery-Aix-Les-Bains

La météo aéronautique pour les pilotes, la préparation du vol avec les METAR (METeorological Aerodrome Report, message d'observation des conditions météorologiques pour l'aviation) et Les TAF (Terminal Aerodrome Forecast : message de prévision à court terme des conditions météorologiques pour l'aviation). Et les autres ressources comme les VAC (Visual Approch Chart) et les NOTAM (Notice To Airman) pour préprer les vols.

Aéroport Stord (Norvège) / OACI ENSO/ IATA SRP

L'altitude de l'aéroport Stord est de 49 m = 161 ft. Il est situé à proximité de Leirvik (Norvège). La météo générale à 5 jours est disponible pour Bekkjarvik situé à 24.7 km.

METAR de l'aéroport Stord - ENSO

ENSO 251450Z 17005KT 9999 BKN040 07/06 Q1012

Décodage du METAR de l'aéroport Stord (NO)

METAR émis par ENSO le lundi 25 novembre 2019 à 14:50 heure TU. Attention ce METAR est obsolète car il a été émis il y a 1 heure et 59 minutes.

La visibilité est de supérieure à 10 km = supérieure à 6.2 sm.

La température est de 7°C = 45 °F et le point rosée est de 6°C = 43 °F . Ce qui correspond à 93% d'humidité relative.

Le QNH est de 1012 hPa = 29.88 inHg

Vent de 5 kt = 9 km/h, orienté à 170°.

Nuages : Couverture nuageuse fragmentée à 4000 ft = 1220 mètres.

TAF de l'aéroport Stord - ENSO

ENSO 011400Z 0115/0119 12012KT CAVOK

ENSO 011400Z 0115/0119 12012KT visibilité supérieure à 10km, aucun nuage à une hauteur inférieure à 5000 ft ou sous l'altitude minimale de secteur et aucun cumulonimbus ou cumulus bourgeonnant, quelle que soit leur altitude

Aéroport à proximité de Stord

Météo générale à 5 jours à Bekkjarvik (24.7 km)Aéroport Haugesund Karmoy (50 km)Aéroport Bergen Flesland (56 km)Aéroport Stavangar Sola (103 km)Aéroport Bomoen (114 km)Aéroport Fyresdal (168 km)Aéroport Forde Bringeland (179 km)

VAC de l'aéroport Stord - ENSO

La carte d'approche à vue (VAC Visual Approah Chart) est fournie sans aucune garantie de son actualité. Le pilote est le seul responsable de la vérification de sa validité avant de l'utiliser opérationnellement pour préparer un vol ou l'utiliser lors de sa navigation.

VAC de ENSO

Vue aérienne de l'aéroport Stord

NOTAM de l'aéroport Stord

Les NOTAM sont fournis sans aucune garantie de leur actualité. Le pilote est le seul responsable de la vérification de sa validité avant de l'utiliser opérationnellement pour préparer un vol ou l'utiliser lors de sa navigation.

Pas de NOTAM

Sources des données